sensor_id;sensor_type;location;lat;lon;timestamp;P1;P2;P0
63707;PMS5003;50270;-25.964;28.072;2022-07-30T00:01:20;74;62;
63707;PMS5003;50270;-25.964;28.072;2022-07-30T00:03:48;72;63;
63707;PMS5003;50270;-25.964;28.072;2022-07-30T00:06:17;67;58;
63707;PMS5003;50270;-25.964;28.072;2022-07-30T00:08:47;66;59;
63707;PMS5003;50270;-25.964;28.072;2022-07-30T00:11:16;72;56;
63707;PMS5003;50270;-25.964;28.072;2022-07-30T00:13:44;65;59;
63707;PMS5003;50270;-25.964;28.072;2022-07-30T00:16:13;69;58;
63707;PMS5003;50270;-25.964;28.072;2022-07-30T00:18:41;67;57;
63707;PMS5003;50270;-25.964;28.072;2022-07-30T00:21:09;62;51;
63707;PMS5003;50270;-25.964;28.072;2022-07-30T00:23:37;67;56;
63707;PMS5003;50270;-25.964;28.072;2022-07-30T00:26:06;59;52;
63707;PMS5003;50270;-25.964;28.072;2022-07-30T00:28:35;66;59;
63707;PMS5003;50270;-25.964;28.072;2022-07-30T00:31:04;58;54;
63707;PMS5003;50270;-25.964;28.072;2022-07-30T00:33:32;68;57;
63707;PMS5003;50270;-25.964;28.072;2022-07-30T00:36:00;65;55;
63707;PMS5003;50270;-25.964;28.072;2022-07-30T00:38:29;64;51;
63707;PMS5003;50270;-25.964;28.072;2022-07-30T00:40:57;55;52;
63707;PMS5003;50270;-25.964;28.072;2022-07-30T00:43:26;62;52;
63707;PMS5003;50270;-25.964;28.072;2022-07-30T00:45:54;60;50;
63707;PMS5003;50270;-25.964;28.072;2022-07-30T00:48:22;61;52;
63707;PMS5003;50270;-25.964;28.072;2022-07-30T00:50:51;69;53;
63707;PMS5003;50270;-25.964;28.072;2022-07-30T00:53:19;51;47;
63707;PMS5003;50270;-25.964;28.072;2022-07-30T00:55:48;66;56;
63707;PMS5003;50270;-25.964;28.072;2022-07-30T00:58:16;61;56;
63707;PMS5003;50270;-25.964;28.072;2022-07-30T01:00:45;60;54;
63707;PMS5003;50270;-25.964;28.072;2022-07-30T01:03:13;62;52;
63707;PMS5003;50270;-25.964;28.072;2022-07-30T01:05:42;60;52;
63707;PMS5003;50270;-25.964;28.072;2022-07-30T01:08:16;63;49;
63707;PMS5003;50270;-25.964;28.072;2022-07-30T01:10:45;55;47;
63707;PMS5003;50270;-25.964;28.072;2022-07-30T01:13:14;62;51;
63707;PMS5003;50270;-25.964;28.072;2022-07-30T01:15:43;57;52;
63707;PMS5003;50270;-25.964;28.072;2022-07-30T01:18:12;59;50;
63707;PMS5003;50270;-25.964;28.072;2022-07-30T01:20:44;64;54;
63707;PMS5003;50270;-25.964;28.072;2022-07-30T01:23:24;61;50;
63707;PMS5003;50270;-25.964;28.072;2022-07-30T01:25:58;60;49;
63707;PMS5003;50270;-25.964;28.072;2022-07-30T01:28:31;54;49;
63707;PMS5003;50270;-25.964;28.072;2022-07-30T01:31:03;55;52;
63707;PMS5003;50270;-25.964;28.072;2022-07-30T01:33:34;56;48;
63707;PMS5003;50270;-25.964;28.072;2022-07-30T01:36:06;60;50;
63707;PMS5003;50270;-25.964;28.072;2022-07-30T01:38:37;62;50;
63707;PMS5003;50270;-25.964;28.072;2022-07-30T01:41:09;59;51;
63707;PMS5003;50270;-25.964;28.072;2022-07-30T01:43:38;52;46;
63707;PMS5003;50270;-25.964;28.072;2022-07-30T01:46:08;60;53;
63707;PMS5003;50270;-25.964;28.072;2022-07-30T01:48:38;54;45;
63707;PMS5003;50270;-25.964;28.072;2022-07-30T01:51:09;59;52;
63707;PMS5003;50270;-25.964;28.072;2022-07-30T01:53:39;58;46;
63707;PMS5003;50270;-25.964;28.072;2022-07-30T01:56:11;52;50;
63707;PMS5003;50270;-25.964;28.072;2022-07-30T01:58:40;60;49;
63707;PMS5003;50270;-25.964;28.072;2022-07-30T02:01:11;53;45;
63707;PMS5003;50270;-25.964;28.072;2022-07-30T02:03:44;58;48;
63707;PMS5003;50270;-25.964;28.072;2022-07-30T02:06:15;51;45;
63707;PMS5003;50270;-25.964;28.072;2022-07-30T02:08:50;57;50;
63707;PMS5003;50270;-25.964;28.072;2022-07-30T02:11:20;58;53;
63707;PMS5003;50270;-25.964;28.072;2022-07-30T02:13:50;57;49;
63707;PMS5003;50270;-25.964;28.072;2022-07-30T02:16:23;52;47;
63707;PMS5003;50270;-25.964;28.072;2022-07-30T02:18:59;58;52;
63707;PMS5003;50270;-25.964;28.072;2022-07-30T02:21:33;52;45;
63707;PMS5003;50270;-25.964;28.072;2022-07-30T02:24:07;55;46;
63707;PMS5003;50270;-25.964;28.072;2022-07-30T02:26:40;52;45;
63707;PMS5003;50270;-25.964;28.072;2022-07-30T02:29:17;53;49;
63707;PMS5003;50270;-25.964;28.072;2022-07-30T02:31:48;53;48;
63707;PMS5003;50270;-25.964;28.072;2022-07-30T02:34:18;64;50;
63707;PMS5003;50270;-25.964;28.072;2022-07-30T02:36:49;51;44;
63707;PMS5003;50270;-25.964;28.072;2022-07-30T02:39:19;48;41;
63707;PMS5003;50270;-25.964;28.072;2022-07-30T02:41:49;49;46;
63707;PMS5003;50270;-25.964;28.072;2022-07-30T02:44:20;60;53;
63707;PMS5003;50270;-25.964;28.072;2022-07-30T02:46:51;49;46;
63707;PMS5003;50270;-25.964;28.072;2022-07-30T02:49:22;50;47;
63707;PMS5003;50270;-25.964;28.072;2022-07-30T02:51:53;51;48;
63707;PMS5003;50270;-25.964;28.072;2022-07-30T02:54:22;58;47;
63707;PMS5003;50270;-25.964;28.072;2022-07-30T02:56:53;52;51;
63707;PMS5003;50270;-25.964;28.072;2022-07-30T02:59:23;57;49;
63707;PMS5003;50270;-25.964;28.072;2022-07-30T03:01:53;59;50;
63707;PMS5003;50270;-25.964;28.072;2022-07-30T03:04:22;58;49;
63707;PMS5003;50270;-25.964;28.072;2022-07-30T03:06:54;54;51;
63707;PMS5003;50270;-25.964;28.072;2022-07-30T03:09:25;57;48;
63707;PMS5003;50270;-25.964;28.072;2022-07-30T03:11:54;52;45;
63707;PMS5003;50270;-25.964;28.072;2022-07-30T03:14:23;57;50;
63707;PMS5003;50270;-25.964;28.072;2022-07-30T03:16:54;50;46;
63707;PMS5003;50270;-25.964;28.072;2022-07-30T03:19:25;57;48;
63707;PMS5003;50270;-25.964;28.072;2022-07-30T03:21:56;48;45;
63707;PMS5003;50270;-25.964;28.072;2022-07-30T03:24:27;56;51;
63707;PMS5003;50270;-25.964;28.072;2022-07-30T03:26:56;55;48;
63707;PMS5003;50270;-25.964;28.072;2022-07-30T03:29:25;55;49;
63707;PMS5003;50270;-25.964;28.072;2022-07-30T03:31:55;61;51;
63707;PMS5003;50270;-25.964;28.072;2022-07-30T03:34:25;55;50;
63707;PMS5003;50270;-25.964;28.072;2022-07-30T03:36:54;52;48;
63707;PMS5003;50270;-25.964;28.072;2022-07-30T03:39:23;59;50;
63707;PMS5003;50270;-25.964;28.072;2022-07-30T03:41:53;54;49;
63707;PMS5003;50270;-25.964;28.072;2022-07-30T03:44:23;56;47;
63707;PMS5003;50270;-25.964;28.072;2022-07-30T03:46:52;58;51;
63707;PMS5003;50270;-25.964;28.072;2022-07-30T03:49:22;51;49;
63707;PMS5003;50270;-25.964;28.072;2022-07-30T03:51:51;51;48;
63707;PMS5003;50270;-25.964;28.072;2022-07-30T03:54:21;52;47;
63707;PMS5003;50270;-25.964;28.072;2022-07-30T03:56:50;50;46;
63707;PMS5003;50270;-25.964;28.072;2022-07-30T03:59:19;57;53;
63707;PMS5003;50270;-25.964;28.072;2022-07-30T04:01:48;60;49;
63707;PMS5003;50270;-25.964;28.072;2022-07-30T04:04:21;52;46;
63707;PMS5003;50270;-25.964;28.072;2022-07-30T04:06:54;51;46;
63707;PMS5003;50270;-25.964;28.072;2022-07-30T04:09:24;63;50;
63707;PMS5003;50270;-25.964;28.072;2022-07-30T04:11:52;49;46;
63707;PMS5003;50270;-25.964;28.072;2022-07-30T04:14:21;59;49;
63707;PMS5003;50270;-25.964;28.072;2022-07-30T04:16:50;50;47;
63707;PMS5003;50270;-25.964;28.072;2022-07-30T04:19:27;60;48;
63707;PMS5003;50270;-25.964;28.072;2022-07-30T04:21:57;57;50;
63707;PMS5003;50270;-25.964;28.072;2022-07-30T04:24:28;52;48;
63707;PMS5003;50270;-25.964;28.072;2022-07-30T04:26:58;47;46;
63707;PMS5003;50270;-25.964;28.072;2022-07-30T04:29:29;54;48;
63707;PMS5003;50270;-25.964;28.072;2022-07-30T04:31:58;54;48;
63707;PMS5003;50270;-25.964;28.072;2022-07-30T04:34:26;57;48;
63707;PMS5003;50270;-25.964;28.072;2022-07-30T04:36:55;52;48;
63707;PMS5003;50270;-25.964;28.072;2022-07-30T04:39:25;57;51;
63707;PMS5003;50270;-25.964;28.072;2022-07-30T04:41:53;55;47;
63707;PMS5003;50270;-25.964;28.072;2022-07-30T04:44:22;60;49;
63707;PMS5003;50270;-25.964;28.072;2022-07-30T04:46:50;51;46;
63707;PMS5003;50270;-25.964;28.072;2022-07-30T04:49:19;52;43;
63707;PMS5003;50270;-25.964;28.072;2022-07-30T04:51:54;58;50;
63707;PMS5003;50270;-25.964;28.072;2022-07-30T04:54:24;48;46;
63707;PMS5003;50270;-25.964;28.072;2022-07-30T04:56:56;48;43;
63707;PMS5003;50270;-25.964;28.072;2022-07-30T04:59:24;52;47;
63707;PMS5003;50270;-25.964;28.072;2022-07-30T05:01:55;50;46;
63707;PMS5003;50270;-25.964;28.072;2022-07-30T05:04:25;51;44;
63707;PMS5003;50270;-25.964;28.072;2022-07-30T05:06:55;50;44;
63707;PMS5003;50270;-25.964;28.072;2022-07-30T05:09:25;50;47;
63707;PMS5003;50270;-25.964;28.072;2022-07-30T05:11:55;54;48;
63707;PMS5003;50270;-25.964;28.072;2022-07-30T05:14:24;53;47;
63707;PMS5003;50270;-25.964;28.072;2022-07-30T05:16:53;48;46;
63707;PMS5003;50270;-25.964;28.072;2022-07-30T05:19:22;49;41;
63707;PMS5003;50270;-25.964;28.072;2022-07-30T05:21:51;51;46;
63707;PMS5003;50270;-25.964;28.072;2022-07-30T05:24:19;49;44;
63707;PMS5003;50270;-25.964;28.072;2022-07-30T05:26:47;51;45;
63707;PMS5003;50270;-25.964;28.072;2022-07-30T05:29:16;49;45;
63707;PMS5003;50270;-25.964;28.072;2022-07-30T05:31:45;45;43;
63707;PMS5003;50270;-25.964;28.072;2022-07-30T05:34:15;43;40;
63707;PMS5003;50270;-25.964;28.072;2022-07-30T05:36:43;46;43;
63707;PMS5003;50270;-25.964;28.072;2022-07-30T05:39:12;54;47;
63707;PMS5003;50270;-25.964;28.072;2022-07-30T05:41:41;53;46;
63707;PMS5003;50270;-25.964;28.072;2022-07-30T05:44:10;51;40;
63707;PMS5003;50270;-25.964;28.072;2022-07-30T05:46:38;47;45;
63707;PMS5003;50270;-25.964;28.072;2022-07-30T05:49:07;45;40;
63707;PMS5003;50270;-25.964;28.072;2022-07-30T05:51:41;41;39;
63707;PMS5003;50270;-25.964;28.072;2022-07-30T05:54:10;52;42;
63707;PMS5003;50270;-25.964;28.072;2022-07-30T05:56:39;49;43;
63707;PMS5003;50270;-25.964;28.072;2022-07-30T05:59:13;48;43;
63707;PMS5003;50270;-25.964;28.072;2022-07-30T06:01:41;42;41;
63707;PMS5003;50270;-25.964;28.072;2022-07-30T06:04:09;49;44;
63707;PMS5003;50270;-25.964;28.072;2022-07-30T06:06:37;47;41;
63707;PMS5003;50270;-25.964;28.072;2022-07-30T06:09:06;45;42;
63707;PMS5003;50270;-25.964;28.072;2022-07-30T06:11:35;55;48;
63707;PMS5003;50270;-25.964;28.072;2022-07-30T06:14:04;50;44;
63707;PMS5003;50270;-25.964;28.072;2022-07-30T06:16:32;43;38;
63707;PMS5003;50270;-25.964;28.072;2022-07-30T06:19:01;47;44;
63707;PMS5003;50270;-25.964;28.072;2022-07-30T06:21:30;47;42;
63707;PMS5003;50270;-25.964;28.072;2022-07-30T06:23:58;51;43;
63707;PMS5003;50270;-25.964;28.072;2022-07-30T06:26:28;44;39;
63707;PMS5003;50270;-25.964;28.072;2022-07-30T06:28:56;48;42;
63707;PMS5003;50270;-25.964;28.072;2022-07-30T06:31:25;46;44;
63707;PMS5003;50270;-25.964;28.072;2022-07-30T06:33:53;52;46;
63707;PMS5003;50270;-25.964;28.072;2022-07-30T06:36:22;43;41;
63707;PMS5003;50270;-25.964;28.072;2022-07-30T06:38:51;45;40;
63707;PMS5003;50270;-25.964;28.072;2022-07-30T06:41:19;46;43;
63707;PMS5003;50270;-25.964;28.072;2022-07-30T06:43:47;51;40;
63707;PMS5003;50270;-25.964;28.072;2022-07-30T06:46:16;49;44;
63707;PMS5003;50270;-25.964;28.072;2022-07-30T06:48:44;47;41;
63707;PMS5003;50270;-25.964;28.072;2022-07-30T06:51:14;42;42;
63707;PMS5003;50270;-25.964;28.072;2022-07-30T06:53:42;52;42;
63707;PMS5003;50270;-25.964;28.072;2022-07-30T06:56:11;51;44;
63707;PMS5003;50270;-25.964;28.072;2022-07-30T06:58:40;52;41;
63707;PMS5003;50270;-25.964;28.072;2022-07-30T07:01:10;45;44;
63707;PMS5003;50270;-25.964;28.072;2022-07-30T07:03:38;48;42;
63707;PMS5003;50270;-25.964;28.072;2022-07-30T07:06:07;48;44;
63707;PMS5003;50270;-25.964;28.072;2022-07-30T07:08:35;50;42;
63707;PMS5003;50270;-25.964;28.072;2022-07-30T07:11:05;47;42;
63707;PMS5003;50270;-25.964;28.072;2022-07-30T07:13:34;47;41;
63707;PMS5003;50270;-25.964;28.072;2022-07-30T07:16:02;50;43;
63707;PMS5003;50270;-25.964;28.072;2022-07-30T07:18:31;55;46;
63707;PMS5003;50270;-25.964;28.072;2022-07-30T07:20:59;49;42;
63707;PMS5003;50270;-25.964;28.072;2022-07-30T07:23:33;45;40;
63707;PMS5003;50270;-25.964;28.072;2022-07-30T07:26:01;44;39;
63707;PMS5003;50270;-25.964;28.072;2022-07-30T07:28:30;42;37;
63707;PMS5003;50270;-25.964;28.072;2022-07-30T07:30:59;42;39;
63707;PMS5003;50270;-25.964;28.072;2022-07-30T07:33:28;43;41;
63707;PMS5003;50270;-25.964;28.072;2022-07-30T07:35:56;47;44;
63707;PMS5003;50270;-25.964;28.072;2022-07-30T07:38:25;45;39;
63707;PMS5003;50270;-25.964;28.072;2022-07-30T07:40:53;41;38;
63707;PMS5003;50270;-25.964;28.072;2022-07-30T07:43:22;44;40;
63707;PMS5003;50270;-25.964;28.072;2022-07-30T07:45:50;48;42;
63707;PMS5003;50270;-25.964;28.072;2022-07-30T07:48:19;45;43;
63707;PMS5003;50270;-25.964;28.072;2022-07-30T07:50:47;41;37;
63707;PMS5003;50270;-25.964;28.072;2022-07-30T07:53:16;41;37;
63707;PMS5003;50270;-25.964;28.072;2022-07-30T07:55:45;44;40;
63707;PMS5003;50270;-25.964;28.072;2022-07-30T07:58:14;50;42;
63707;PMS5003;50270;-25.964;28.072;2022-07-30T08:00:43;43;40;
63707;PMS5003;50270;-25.964;28.072;2022-07-30T08:03:11;43;42;
63707;PMS5003;50270;-25.964;28.072;2022-07-30T08:05:40;46;38;
63707;PMS5003;50270;-25.964;28.072;2022-07-30T08:08:09;40;39;
63707;PMS5003;50270;-25.964;28.072;2022-07-30T08:10:38;41;38;
63707;PMS5003;50270;-25.964;28.072;2022-07-30T08:13:06;37;34;
63707;PMS5003;50270;-25.964;28.072;2022-07-30T08:15:35;45;42;
63707;PMS5003;50270;-25.964;28.072;2022-07-30T08:18:04;48;37;
63707;PMS5003;50270;-25.964;28.072;2022-07-30T08:20:32;41;38;
63707;PMS5003;50270;-25.964;28.072;2022-07-30T08:23:01;50;45;
63707;PMS5003;50270;-25.964;28.072;2022-07-30T08:25:31;50;46;
63707;PMS5003;50270;-25.964;28.072;2022-07-30T08:28:00;53;48;
63707;PMS5003;50270;-25.964;28.072;2022-07-30T08:30:28;46;43;
63707;PMS5003;50270;-25.964;28.072;2022-07-30T08:32:57;49;44;
63707;PMS5003;50270;-25.964;28.072;2022-07-30T08:35:27;45;41;
63707;PMS5003;50270;-25.964;28.072;2022-07-30T08:37:56;47;45;
63707;PMS5003;50270;-25.964;28.072;2022-07-30T08:40:24;39;36;
63707;PMS5003;50270;-25.964;28.072;2022-07-30T08:42:53;46;39;
63707;PMS5003;50270;-25.964;28.072;2022-07-30T08:45:22;41;39;
63707;PMS5003;50270;-25.964;28.072;2022-07-30T08:47:51;43;40;
63707;PMS5003;50270;-25.964;28.072;2022-07-30T08:50:23;46;46;
63707;PMS5003;50270;-25.964;28.072;2022-07-30T08:52:51;56;45;
63707;PMS5003;50270;-25.964;28.072;2022-07-30T08:55:20;44;40;
63707;PMS5003;50270;-25.964;28.072;2022-07-30T08:57:50;46;43;
63707;PMS5003;50270;-25.964;28.072;2022-07-30T09:00:18;46;41;
63707;PMS5003;50270;-25.964;28.072;2022-07-30T09:02:47;41;36;
63707;PMS5003;50270;-25.964;28.072;2022-07-30T09:05:16;47;43;
63707;PMS5003;50270;-25.964;28.072;2022-07-30T09:07:44;48;43;
63707;PMS5003;50270;-25.964;28.072;2022-07-30T09:10:13;53;44;
63707;PMS5003;50270;-25.964;28.072;2022-07-30T09:12:41;50;39;
63707;PMS5003;50270;-25.964;28.072;2022-07-30T09:15:11;41;37;
63707;PMS5003;50270;-25.964;28.072;2022-07-30T09:17:57;44;34;
63707;PMS5003;50270;-25.964;28.072;2022-07-30T09:20:29;42;37;
63707;PMS5003;50270;-25.964;28.072;2022-07-30T09:23:00;43;39;
63707;PMS5003;50270;-25.964;28.072;2022-07-30T09:25:32;39;37;
63707;PMS5003;50270;-25.964;28.072;2022-07-30T09:28:03;44;39;
63707;PMS5003;50270;-25.964;28.072;2022-07-30T09:30:42;46;36;
63707;PMS5003;50270;-25.964;28.072;2022-07-30T09:33:13;46;39;
63707;PMS5003;50270;-25.964;28.072;2022-07-30T09:35:57;41;36;
63707;PMS5003;50270;-25.964;28.072;2022-07-30T09:38:26;38;36;
63707;PMS5003;50270;-25.964;28.072;2022-07-30T09:40:55;46;40;
63707;PMS5003;50270;-25.964;28.072;2022-07-30T09:43:24;41;35;
63707;PMS5003;50270;-25.964;28.072;2022-07-30T09:45:53;48;42;
63707;PMS5003;50270;-25.964;28.072;2022-07-30T09:48:23;43;38;
63707;PMS5003;50270;-25.964;28.072;2022-07-30T09:50:54;38;37;
63707;PMS5003;50270;-25.964;28.072;2022-07-30T09:53:22;45;38;
63707;PMS5003;50270;-25.964;28.072;2022-07-30T09:55:51;40;38;
63707;PMS5003;50270;-25.964;28.072;2022-07-30T09:58:20;44;39;
63707;PMS5003;50270;-25.964;28.072;2022-07-30T10:00:48;45;37;
63707;PMS5003;50270;-25.964;28.072;2022-07-30T10:03:24;44;39;
63707;PMS5003;50270;-25.964;28.072;2022-07-30T10:05:53;43;38;
63707;PMS5003;50270;-25.964;28.072;2022-07-30T10:08:37;44;41;
63707;PMS5003;50270;-25.964;28.072;2022-07-30T10:11:08;42;37;
63707;PMS5003;50270;-25.964;28.072;2022-07-30T10:13:39;46;40;
63707;PMS5003;50270;-25.964;28.072;2022-07-30T10:16:09;45;40;
63707;PMS5003;50270;-25.964;28.072;2022-07-30T10:18:38;44;40;
63707;PMS5003;50270;-25.964;28.072;2022-07-30T10:21:09;42;41;
63707;PMS5003;50270;-25.964;28.072;2022-07-30T10:23:39;41;40;
63707;PMS5003;50270;-25.964;28.072;2022-07-30T10:26:08;40;34;
63707;PMS5003;50270;-25.964;28.072;2022-07-30T10:28:38;43;35;
63707;PMS5003;50270;-25.964;28.072;2022-07-30T10:31:08;48;42;
63707;PMS5003;50270;-25.964;28.072;2022-07-30T10:33:37;46;38;
63707;PMS5003;50270;-25.964;28.072;2022-07-30T10:36:09;42;37;
63707;PMS5003;50270;-25.964;28.072;2022-07-30T10:38:39;45;40;
63707;PMS5003;50270;-25.964;28.072;2022-07-30T10:41:13;38;35;
63707;PMS5003;50270;-25.964;28.072;2022-07-30T10:44:03;43;40;
63707;PMS5003;50270;-25.964;28.072;2022-07-30T10:46:44;38;34;
63707;PMS5003;50270;-25.964;28.072;2022-07-30T10:49:22;41;39;
63707;PMS5003;50270;-25.964;28.072;2022-07-30T10:51:51;46;41;
63707;PMS5003;50270;-25.964;28.072;2022-07-30T10:54:52;44;37;
63707;PMS5003;50270;-25.964;28.072;2022-07-30T10:57:25;39;36;
63707;PMS5003;50270;-25.964;28.072;2022-07-30T11:00:14;36;35;
63707;PMS5003;50270;-25.964;28.072;2022-07-30T11:03:22;45;39;
63707;PMS5003;50270;-25.964;28.072;2022-07-30T11:06:23;44;42;
63707;PMS5003;50270;-25.964;28.072;2022-07-30T11:08:52;42;35;
63707;PMS5003;50270;-25.964;28.072;2022-07-30T11:11:53;43;40;
63707;PMS5003;50270;-25.964;28.072;2022-07-30T11:14:22;43;38;
63707;PMS5003;50270;-25.964;28.072;2022-07-30T11:17:23;42;38;
63707;PMS5003;50270;-25.964;28.072;2022-07-30T11:20:23;43;38;
63707;PMS5003;50270;-25.964;28.072;2022-07-30T11:22:52;39;37;
63707;PMS5003;50270;-25.964;28.072;2022-07-30T11:25:37;42;37;
63707;PMS5003;50270;-25.964;28.072;2022-07-30T11:28:32;41;36;
63707;PMS5003;50270;-25.964;28.072;2022-07-30T11:31:01;37;35;
63707;PMS5003;50270;-25.964;28.072;2022-07-30T11:33:50;39;38;
63707;PMS5003;50270;-25.964;28.072;2022-07-30T11:36:19;34;32;
63707;PMS5003;50270;-25.964;28.072;2022-07-30T11:38:50;39;39;
63707;PMS5003;50270;-25.964;28.072;2022-07-30T11:41:20;36;35;
63707;PMS5003;50270;-25.964;28.072;2022-07-30T11:43:49;39;35;
63707;PMS5003;50270;-25.964;28.072;2022-07-30T11:46:52;42;36;
63707;PMS5003;50270;-25.964;28.072;2022-07-30T11:49:21;40;38;
63707;PMS5003;50270;-25.964;28.072;2022-07-30T11:51:50;35;35;
63707;PMS5003;50270;-25.964;28.072;2022-07-30T11:54:19;39;37;
63707;PMS5003;50270;-25.964;28.072;2022-07-30T11:56:48;43;37;
63707;PMS5003;50270;-25.964;28.072;2022-07-30T11:59:18;41;38;
63707;PMS5003;50270;-25.964;28.072;2022-07-30T12:01:50;31;28;
63707;PMS5003;50270;-25.964;28.072;2022-07-30T12:04:19;37;37;
63707;PMS5003;50270;-25.964;28.072;2022-07-30T12:06:47;36;31;
63707;PMS5003;50270;-25.964;28.072;2022-07-30T12:09:24;38;34;
63707;PMS5003;50270;-25.964;28.072;2022-07-30T12:11:53;36;34;
63707;PMS5003;50270;-25.964;28.072;2022-07-30T12:14:22;38;34;
63707;PMS5003;50270;-25.964;28.072;2022-07-30T12:16:51;33;33;
63707;PMS5003;50270;-25.964;28.072;2022-07-30T12:19:21;35;32;
63707;PMS5003;50270;-25.964;28.072;2022-07-30T12:21:50;32;29;
63707;PMS5003;50270;-25.964;28.072;2022-07-30T12:24:22;40;34;
63707;PMS5003;50270;-25.964;28.072;2022-07-30T12:26:52;45;38;
63707;PMS5003;50270;-25.964;28.072;2022-07-30T12:29:31;35;32;
63707;PMS5003;50270;-25.964;28.072;2022-07-30T12:32:00;36;34;
63707;PMS5003;50270;-25.964;28.072;2022-07-30T12:34:29;37;31;
63707;PMS5003;50270;-25.964;28.072;2022-07-30T12:37:06;32;31;
63707;PMS5003;50270;-25.964;28.072;2022-07-30T12:39:35;37;35;
63707;PMS5003;50270;-25.964;28.072;2022-07-30T12:42:03;37;35;
63707;PMS5003;50270;-25.964;28.072;2022-07-30T12:44:33;36;33;
63707;PMS5003;50270;-25.964;28.072;2022-07-30T12:47:05;32;30;
63707;PMS5003;50270;-25.964;28.072;2022-07-30T12:49:44;32;29;
63707;PMS5003;50270;-25.964;28.072;2022-07-30T12:52:19;31;29;
63707;PMS5003;50270;-25.964;28.072;2022-07-30T12:54:55;35;31;
63707;PMS5003;50270;-25.964;28.072;2022-07-30T12:57:27;36;33;
63707;PMS5003;50270;-25.964;28.072;2022-07-30T13:00:18;31;30;
63707;PMS5003;50270;-25.964;28.072;2022-07-30T13:02:48;36;34;
63707;PMS5003;50270;-25.964;28.072;2022-07-30T13:05:16;34;31;
63707;PMS5003;50270;-25.964;28.072;2022-07-30T13:07:53;37;34;
63707;PMS5003;50270;-25.964;28.072;2022-07-30T13:10:24;31;30;
63707;PMS5003;50270;-25.964;28.072;2022-07-30T13:12:53;34;33;
63707;PMS5003;50270;-25.964;28.072;2022-07-30T13:15:22;33;31;
63707;PMS5003;50270;-25.964;28.072;2022-07-30T13:17:50;39;33;
63707;PMS5003;50270;-25.964;28.072;2022-07-30T13:20:18;30;28;
63707;PMS5003;50270;-25.964;28.072;2022-07-30T13:22:47;32;29;
63707;PMS5003;50270;-25.964;28.072;2022-07-30T13:25:16;33;32;
63707;PMS5003;50270;-25.964;28.072;2022-07-30T13:27:45;32;32;
63707;PMS5003;50270;-25.964;28.072;2022-07-30T13:30:14;36;31;
63707;PMS5003;50270;-25.964;28.072;2022-07-30T13:32:43;37;35;
63707;PMS5003;50270;-25.964;28.072;2022-07-30T13:35:12;34;30;
63707;PMS5003;50270;-25.964;28.072;2022-07-30T13:37:40;37;33;
63707;PMS5003;50270;-25.964;28.072;2022-07-30T13:40:10;31;28;
63707;PMS5003;50270;-25.964;28.072;2022-07-30T13:42:39;39;33;
63707;PMS5003;50270;-25.964;28.072;2022-07-30T13:45:08;30;28;
63707;PMS5003;50270;-25.964;28.072;2022-07-30T13:47:37;29;26;
63707;PMS5003;50270;-25.964;28.072;2022-07-30T13:50:06;35;32;
63707;PMS5003;50270;-25.964;28.072;2022-07-30T13:52:35;31;30;
63707;PMS5003;50270;-25.964;28.072;2022-07-30T13:55:03;33;30;
63707;PMS5003;50270;-25.964;28.072;2022-07-30T13:57:32;29;27;
63707;PMS5003;50270;-25.964;28.072;2022-07-30T14:00:02;33;29;
63707;PMS5003;50270;-25.964;28.072;2022-07-30T14:02:32;32;27;
63707;PMS5003;50270;-25.964;28.072;2022-07-30T14:05:02;34;30;
63707;PMS5003;50270;-25.964;28.072;2022-07-30T14:07:31;31;28;
63707;PMS5003;50270;-25.964;28.072;2022-07-30T14:10:00;32;28;
63707;PMS5003;50270;-25.964;28.072;2022-07-30T14:12:29;35;29;
63707;PMS5003;50270;-25.964;28.072;2022-07-30T14:14:58;36;31;
63707;PMS5003;50270;-25.964;28.072;2022-07-30T14:17:32;34;32;
63707;PMS5003;50270;-25.964;28.072;2022-07-30T14:20:06;31;29;
63707;PMS5003;50270;-25.964;28.072;2022-07-30T14:22:36;28;27;
63707;PMS5003;50270;-25.964;28.072;2022-07-30T14:25:04;31;25;
63707;PMS5003;50270;-25.964;28.072;2022-07-30T14:27:33;31;30;
63707;PMS5003;50270;-25.964;28.072;2022-07-30T14:30:03;28;28;
63707;PMS5003;50270;-25.964;28.072;2022-07-30T14:32:34;24;23;
63707;PMS5003;50270;-25.964;28.072;2022-07-30T14:35:03;30;29;
63707;PMS5003;50270;-25.964;28.072;2022-07-30T14:37:33;30;29;
63707;PMS5003;50270;-25.964;28.072;2022-07-30T14:40:02;30;28;
63707;PMS5003;50270;-25.964;28.072;2022-07-30T14:42:32;33;29;
63707;PMS5003;50270;-25.964;28.072;2022-07-30T14:45:00;33;28;
63707;PMS5003;50270;-25.964;28.072;2022-07-30T14:47:29;30;28;
63707;PMS5003;50270;-25.964;28.072;2022-07-30T14:49:58;33;28;
63707;PMS5003;50270;-25.964;28.072;2022-07-30T14:52:26;36;33;
63707;PMS5003;50270;-25.964;28.072;2022-07-30T14:54:56;30;30;
63707;PMS5003;50270;-25.964;28.072;2022-07-30T14:57:25;24;24;
63707;PMS5003;50270;-25.964;28.072;2022-07-30T14:59:54;32;32;
63707;PMS5003;50270;-25.964;28.072;2022-07-30T15:02:23;36;31;
63707;PMS5003;50270;-25.964;28.072;2022-07-30T15:04:51;26;25;
63707;PMS5003;50270;-25.964;28.072;2022-07-30T15:07:20;26;25;
63707;PMS5003;50270;-25.964;28.072;2022-07-30T15:09:48;32;30;
63707;PMS5003;50270;-25.964;28.072;2022-07-30T15:12:17;33;26;
63707;PMS5003;50270;-25.964;28.072;2022-07-30T15:14:45;30;28;
63707;PMS5003;50270;-25.964;28.072;2022-07-30T15:17:14;26;24;
63707;PMS5003;50270;-25.964;28.072;2022-07-30T15:19:43;31;30;
63707;PMS5003;50270;-25.964;28.072;2022-07-30T15:22:11;30;29;
63707;PMS5003;50270;-25.964;28.072;2022-07-30T15:24:40;29;26;
63707;PMS5003;50270;-25.964;28.072;2022-07-30T15:27:09;29;29;
63707;PMS5003;50270;-25.964;28.072;2022-07-30T15:29:38;32;27;
63707;PMS5003;50270;-25.964;28.072;2022-07-30T15:32:06;28;25;
63707;PMS5003;50270;-25.964;28.072;2022-07-30T15:34:34;32;28;
63707;PMS5003;50270;-25.964;28.072;2022-07-30T15:37:03;24;24;
63707;PMS5003;50270;-25.964;28.072;2022-07-30T15:39:38;38;30;
63707;PMS5003;50270;-25.964;28.072;2022-07-30T15:42:06;28;28;
63707;PMS5003;50270;-25.964;28.072;2022-07-30T15:44:34;31;28;
63707;PMS5003;50270;-25.964;28.072;2022-07-30T15:47:04;27;27;
63707;PMS5003;50270;-25.964;28.072;2022-07-30T15:49:32;27;23;
63707;PMS5003;50270;-25.964;28.072;2022-07-30T15:52:01;27;24;
63707;PMS5003;50270;-25.964;28.072;2022-07-30T15:54:32;30;27;
63707;PMS5003;50270;-25.964;28.072;2022-07-30T15:57:00;30;28;
63707;PMS5003;50270;-25.964;28.072;2022-07-30T15:59:34;28;25;
63707;PMS5003;50270;-25.964;28.072;2022-07-30T16:02:02;35;31;
63707;PMS5003;50270;-25.964;28.072;2022-07-30T16:04:32;34;29;
63707;PMS5003;50270;-25.964;28.072;2022-07-30T16:07:00;28;24;
63707;PMS5003;50270;-25.964;28.072;2022-07-30T16:09:29;31;27;